Time;durP1;ratioP1;P1;durP2;ratioP2;P2;SDS_P1;SDS_P2;PMS_P1;PMS_P2;Temp;Humidity;BMP_temperature;BMP_pressure;BME280_temperature;BME280_humidity;BME280_pressure;Samples;Min_cycle;Max_cycle;Signal;HPM_P1;HPM_P2
2024/01/21 05:00:45;;;;;;;3.23;1.50;;;-4.80;97.30;;;;;;6003593;22;20397;-91
2024/01/21 05:03:11;;;;;;;1.20;1.10;;;-4.80;97.30;;;;;;5003467;28;20450;-92
2024/01/21 05:05:43;;;;;;;1.13;1.03;;;-4.80;97.30;;;;;;5106705;27;20546;-74
2024/01/21 05:08:09;;;;;;;1.37;1.27;;;-4.90;97.30;;;;;;5093677;28;20480;-73
2024/01/21 05:10:36;;;;;;;1.43;1.33;;;-4.90;97.30;;;;;;5107673;28;20636;-74
2024/01/21 05:13:01;;;;;;;1.60;1.50;;;-5.00;97.30;;;;;;5124139;27;20173;-74
2024/01/21 05:15:27;;;;;;;1.40;1.30;;;-5.00;97.30;;;;;;5113139;28;20930;-74
2024/01/21 05:17:56;;;;;;;4.53;1.50;;;-5.00;97.30;;;;;;5110803;28;20181;-75
2024/01/21 05:20:21;;;;;;;1.10;1.00;;;-5.00;97.30;;;;;;5103930;28;20174;-75
2024/01/21 05:22:47;;;;;;;1.50;1.40;;;-5.00;97.30;;;;;;5119519;28;20526;-74
2024/01/21 05:25:13;;;;;;;2.53;2.33;;;-5.10;97.30;;;;;;5103626;28;20643;-75
2024/01/21 05:27:39;;;;;;;1.70;1.07;;;-5.20;97.30;;;;;;5106412;28;20678;-75
2024/01/21 05:30:06;;;;;;;1.40;1.30;;;-5.30;97.30;;;;;;5107699;28;20432;-76
2024/01/21 05:32:32;;;;;;;7.63;1.97;;;-5.40;97.30;;;;;;5104883;28;20220;-74
2024/01/21 05:34:57;;;;;;;1.30;1.20;;;-5.50;97.30;;;;;;5109563;28;20451;-75
2024/01/21 05:37:23;;;;;;;3.53;1.23;;;-5.60;97.30;;;;;;5114344;28;20498;-74
2024/01/21 05:39:49;;;;;;;1.10;1.00;;;-5.60;97.30;;;;;;5114135;28;20536;-75
2024/01/21 05:42:14;;;;;;;1.30;1.20;;;-5.70;97.30;;;;;;5114614;28;20236;-75
2024/01/21 05:44:40;;;;;;;1.17;1.07;;;-5.80;97.30;;;;;;5111277;28;20618;-75
2024/01/21 05:47:05;;;;;;;1.30;1.20;;;-5.90;97.30;;;;;;5104763;28;20178;-75
2024/01/21 05:49:31;;;;;;;1.23;1.10;;;-5.90;97.30;;;;;;5109434;28;20178;-75
2024/01/21 05:51:57;;;;;;;1.73;1.17;;;-5.90;97.30;;;;;;5101068;28;20194;-76
2024/01/21 05:54:22;;;;;;;1.20;1.10;;;-5.80;97.30;;;;;;5103977;28;20435;-75
2024/01/21 05:56:48;;;;;;;1.60;1.50;;;-5.80;97.30;;;;;;5117975;28;20178;-76
2024/01/21 05:59:16;;;;;;;0.97;0.87;;;-5.80;97.30;;;;;;5109732;28;20174;-75
2024/01/21 06:01:49;;;;;;;2.33;1.97;;;-5.80;97.30;;;;;;5104189;28;20194;-75
2024/01/21 06:04:15;;;;;;;1.37;1.27;;;-5.70;97.30;;;;;;5118902;28;20482;-75
2024/01/21 06:06:40;;;;;;;1.00;0.90;;;-5.60;97.30;;;;;;5108580;28;20428;-75
2024/01/21 06:09:06;;;;;;;1.27;1.17;;;-5.50;97.30;;;;;;5116862;28;20254;-75
2024/01/21 06:11:31;;;;;;;1.10;1.00;;;-5.40;97.30;;;;;;5104216;28;20255;-75
2024/01/21 06:13:57;;;;;;;1.10;1.00;;;-5.40;97.30;;;;;;5122403;28;20260;-75
2024/01/21 06:16:22;;;;;;;5.50;1.30;;;-5.50;97.30;;;;;;5102731;28;20679;-75
2024/01/21 06:18:48;;;;;;;1.00;0.90;;;-5.60;97.30;;;;;;5094675;28;20182;-75
2024/01/21 06:21:16;;;;;;;1.53;1.43;;;-5.50;97.30;;;;;;5096804;28;20221;-76
2024/01/21 06:23:42;;;;;;;1.10;1.00;;;-5.50;97.30;;;;;;5096564;28;20236;-75
2024/01/21 06:26:19;;;;;;;1.40;1.30;;;-5.40;97.30;;;;;;5087458;28;20413;-76
2024/01/21 06:28:45;;;;;;;0.93;0.83;;;-5.40;97.30;;;;;;5095416;28;20422;-75
2024/01/21 06:31:11;;;;;;;1.10;1.00;;;-5.30;97.30;;;;;;5088175;28;20465;-75
2024/01/21 06:33:38;;;;;;;1.00;0.90;;;-5.20;97.30;;;;;;5096571;28;20511;-75
2024/01/21 06:36:04;;;;;;;3.17;2.13;;;-5.10;97.30;;;;;;5099876;28;20190;-75
2024/01/21 06:38:29;;;;;;;1.00;0.90;;;-5.00;97.30;;;;;;5096387;28;20838;-75
2024/01/21 06:40:55;;;;;;;2.43;2.23;;;-4.90;97.30;;;;;;5086532;28;20691;-74
2024/01/21 06:43:20;;;;;;;2.40;2.20;;;-4.80;97.30;;;;;;5094170;28;20204;-74
2024/01/21 06:45:46;;;;;;;1.00;0.90;;;-4.80;97.30;;;;;;5099394;28;20251;-74
2024/01/21 06:48:11;;;;;;;2.13;1.97;;;-4.70;97.30;;;;;;5097369;28;20198;-74
2024/01/21 06:50:37;;;;;;;1.30;1.13;;;-4.70;97.30;;;;;;5089302;28;20638;-74
2024/01/21 06:53:03;;;;;;;0.90;0.80;;;-4.70;97.30;;;;;;5093048;28;20186;-74
2024/01/21 06:55:28;;;;;;;1.00;0.90;;;-4.70;97.30;;;;;;5102925;28;20166;-74
2024/01/21 06:57:54;;;;;;;1.10;1.00;;;-4.60;97.30;;;;;;5099161;28;20411;-73
2024/01/21 07:00:19;;;;;;;1.00;0.90;;;-4.60;97.30;;;;;;5093905;28;20177;-74
2024/01/21 07:02:45;;;;;;;1.00;0.90;;;-4.70;97.30;;;;;;5091589;28;20178;-73
2024/01/21 07:05:11;;;;;;;1.73;1.33;;;-4.70;97.30;;;;;;5090519;28;20317;-73
2024/01/21 07:07:36;;;;;;;4.77;1.47;;;-4.60;97.30;;;;;;5100062;28;20183;-73
2024/01/21 07:10:02;;;;;;;1.00;0.90;;;-4.40;97.30;;;;;;5096579;28;20175;-73
2024/01/21 07:12:27;;;;;;;1.10;1.00;;;-4.20;97.30;;;;;;5086765;28;20709;-72
2024/01/21 07:14:53;;;;;;;1.10;1.00;;;-4.10;97.30;;;;;;5098078;28;20181;-72
2024/01/21 07:17:18;;;;;;;1.00;0.90;;;-3.90;97.30;;;;;;5095414;28;20257;-72
2024/01/21 07:19:44;;;;;;;1.10;1.00;;;-3.80;97.30;;;;;;5087660;28;20183;-71
2024/01/21 07:22:10;;;;;;;1.00;0.90;;;-3.60;97.30;;;;;;5096651;28;20194;-72
2024/01/21 07:24:35;;;;;;;1.00;0.90;;;-3.50;97.30;;;;;;5089376;28;20481;-71
2024/01/21 07:27:01;;;;;;;1.67;1.57;;;-3.30;97.30;;;;;;5093172;28;20252;-71
2024/01/21 07:29:27;;;;;;;1.30;1.20;;;-3.20;97.30;;;;;;5094849;28;20550;-71
2024/01/21 07:31:53;;;;;;;1.00;0.90;;;-3.00;97.30;;;;;;5083557;28;20466;-70
2024/01/21 07:34:19;;;;;;;3.43;1.47;;;-2.80;96.80;;;;;;5098862;28;20189;-70
2024/01/21 07:36:45;;;;;;;1.80;1.30;;;-2.70;96.30;;;;;;5095329;28;20648;-70
2024/01/21 07:39:11;;;;;;;1.00;0.90;;;-2.60;95.70;;;;;;5104534;28;20423;-69
2024/01/21 07:41:37;;;;;;;1.23;1.13;;;-2.40;95.30;;;;;;5089787;28;20228;-69
2024/01/21 07:44:02;;;;;;;1.23;1.13;;;-2.30;94.80;;;;;;5104610;28;20484;-69
2024/01/21 07:46:28;;;;;;;1.70;1.43;;;-2.30;94.70;;;;;;5094873;28;20184;-68
2024/01/21 07:48:53;;;;;;;1.00;0.90;;;-2.20;93.90;;;;;;5079664;28;20189;-69
2024/01/21 07:51:20;;;;;;;1.00;0.90;;;-2.10;93.90;;;;;;5086605;28;20186;-69
2024/01/21 07:53:45;;;;;;;1.37;1.27;;;-2.10;93.90;;;;;;5104804;28;20269;-69
2024/01/21 07:56:12;;;;;;;1.10;1.00;;;-2.00;93.90;;;;;;5088234;28;20558;-68
2024/01/21 07:58:38;;;;;;;1.70;1.60;;;-2.00;93.80;;;;;;5087335;28;20554;-68
2024/01/21 08:01:10;;;;;;;1.27;1.17;;;-1.90;93.60;;;;;;5090382;28;20955;-68
2024/01/21 08:03:35;;;;;;;1.07;1.07;;;-1.90;93.50;;;;;;5103939;28;20191;-68
2024/01/21 08:06:01;;;;;;;1.30;1.23;;;-1.80;93.20;;;;;;5095466;28;20428;-67
2024/01/21 08:08:26;;;;;;;5.30;2.63;;;-1.70;92.80;;;;;;5094014;28;20182;-67
2024/01/21 08:10:52;;;;;;;1.50;1.13;;;-1.60;92.30;;;;;;5090995;28;20196;-67
2024/01/21 08:13:17;;;;;;;1.17;1.07;;;-1.50;91.90;;;;;;5104410;28;20178;-67
2024/01/21 08:15:43;;;;;;;1.10;1.00;;;-1.50;92.00;;;;;;5109403;28;20204;-67
2024/01/21 08:18:08;;;;;;;1.20;1.10;;;-1.40;91.80;;;;;;5077613;28;20190;-67
2024/01/21 08:20:34;;;;;;;1.83;1.73;;;-1.40;91.70;;;;;;5088084;28;20301;-66
2024/01/21 08:23:01;;;;;;;1.00;0.90;;;-1.30;91.40;;;;;;5101210;28;20189;-67
2024/01/21 08:25:27;;;;;;;1.47;1.37;;;-1.30;91.40;;;;;;5092177;28;20217;-66
2024/01/21 08:27:53;;;;;;;1.00;0.90;;;-1.20;91.70;;;;;;5109154;28;20415;-66
2024/01/21 08:30:19;;;;;;;1.37;1.20;;;-1.20;91.20;;;;;;5103244;28;20174;-67
2024/01/21 08:32:45;;;;;;;1.23;1.13;;;-1.10;90.90;;;;;;5071237;28;20186;-66
2024/01/21 08:35:10;;;;;;;2.43;2.23;;;-1.00;90.70;;;;;;5094524;28;20906;-66
2024/01/21 08:37:36;;;;;;;1.43;1.33;;;-1.00;90.10;;;;;;5090979;28;20214;-66
2024/01/21 08:40:04;;;;;;;2.00;1.83;;;-0.90;90.10;;;;;;5109179;28;20174;-67
2024/01/21 08:42:29;;;;;;;1.87;1.83;;;-0.90;89.90;;;;;;5098479;28;20414;-67
2024/01/21 08:44:55;;;;;;;1.40;1.30;;;-0.80;89.70;;;;;;5100346;28;20546;-66
2024/01/21 08:47:21;;;;;;;2.70;2.50;;;-0.80;89.70;;;;;;5100911;28;20800;-66
2024/01/21 08:49:46;;;;;;;1.37;1.27;;;-0.70;89.70;;;;;;5096655;28;20178;-66
2024/01/21 08:52:12;;;;;;;0.93;0.83;;;-0.70;89.60;;;;;;5083323;28;20190;-66
2024/01/21 08:54:38;;;;;;;1.00;0.90;;;-0.60;89.60;;;;;;5096217;28;20784;-66
2024/01/21 08:57:04;;;;;;;1.00;0.90;;;-0.60;90.20;;;;;;5107536;28;20544;-65
2024/01/21 08:59:30;;;;;;;1.33;1.23;;;-0.50;90.50;;;;;;5083031;28;20436;-65
2024/01/21 09:01:56;;;;;;;1.20;1.10;;;-0.50;90.50;;;;;;5085785;28;20414;-66
2024/01/21 09:04:21;;;;;;;1.00;0.90;;;-0.40;89.90;;;;;;5101765;28;20229;-65
2024/01/21 09:06:47;;;;;;;1.70;1.60;;;-0.40;89.60;;;;;;5098393;28;20468;-65
2024/01/21 09:09:12;;;;;;;1.00;0.90;;;-0.30;89.90;;;;;;5093814;28;20260;-65
2024/01/21 09:11:39;;;;;;;1.23;1.13;;;-0.30;90.20;;;;;;5104927;28;20289;-65
2024/01/21 09:14:05;;;;;;;1.23;1.13;;;-0.20;89.70;;;;;;5091455;28;20223;-66
2024/01/21 09:16:31;;;;;;;1.33;1.23;;;-0.20;89.80;;;;;;5091039;28;20420;-66
2024/01/21 09:18:56;;;;;;;1.10;1.00;;;-0.20;89.60;;;;;;5091413;28;20427;-65
2024/01/21 09:21:22;;;;;;;1.20;1.10;;;-0.20;89.30;;;;;;5092081;28;20444;-66
2024/01/21 09:23:48;;;;;;;1.60;1.50;;;-0.10;89.10;;;;;;5086738;28;20234;-65
2024/01/21 09:26:13;;;;;;;4.80;3.13;;;-0.10;89.10;;;;;;5093537;28;20186;-66
2024/01/21 09:28:39;;;;;;;1.53;1.43;;;0.00;88.90;;;;;;5090468;28;20178;-65
2024/01/21 09:31:04;;;;;;;2.10;1.20;;;0.00;89.10;;;;;;5094724;28;20561;-65
2024/01/21 09:33:30;;;;;;;2.17;2.00;;;0.10;89.00;;;;;;5087307;28;20686;-66
2024/01/21 09:35:56;;;;;;;1.10;1.00;;;0.10;88.40;;;;;;5098004;28;20182;-66
2024/01/21 09:38:21;;;;;;;0.93;0.83;;;0.10;88.40;;;;;;5102385;28;20706;-66
2024/01/21 09:41:13;;;;;;;2.43;1.37;;;0.20;88.70;;;;;;5089150;28;20432;-66
2024/01/21 09:43:42;;;;;;;0.90;0.80;;;0.20;89.10;;;;;;5090220;28;20178;-65
2024/01/21 09:46:11;;;;;;;1.10;1.00;;;0.20;89.20;;;;;;5095790;28;20980;-66
2024/01/21 09:48:37;;;;;;;1.73;1.10;;;0.20;89.40;;;;;;5095353;28;20420;-65
2024/01/21 09:51:05;;;;;;;0.90;0.80;;;0.30;89.20;;;;;;5089402;28;20478;-66
2024/01/21 09:53:30;;;;;;;0.90;0.80;;;0.30;88.80;;;;;;5111063;28;20438;-66
2024/01/21 09:56:04;;;;;;;1.67;1.60;;;0.40;88.60;;;;;;5099392;28;20426;-66
2024/01/21 09:58:33;;;;;;;1.93;1.83;;;0.50;88.70;;;;;;5091949;28;20664;-66
2024/01/21 10:00:59;;;;;;;1.23;1.13;;;0.50;87.80;;;;;;5090319;28;20509;-66
2024/01/21 10:03:25;;;;;;;1.40;1.30;;;0.60;87.30;;;;;;5099841;28;21002;-65
2024/01/21 10:05:50;;;;;;;8.53;2.40;;;0.60;87.20;;;;;;5091561;28;20479;-66
2024/01/21 10:08:16;;;;;;;1.10;1.00;;;0.70;87.20;;;;;;5097147;28;20209;-69
2024/01/21 10:10:44;;;;;;;1.10;1.00;;;0.80;86.80;;;;;;5090425;28;20207;-66
2024/01/21 10:13:10;;;;;;;1.10;1.00;;;0.90;86.00;;;;;;5103079;28;20679;-66
2024/01/21 10:15:35;;;;;;;1.00;0.90;;;1.00;85.40;;;;;;5101557;28;20420;-66
2024/01/21 10:18:01;;;;;;;1.00;0.90;;;1.10;86.30;;;;;;5107025;28;20263;-66
2024/01/21 10:20:28;;;;;;;2.10;1.77;;;1.20;85.10;;;;;;5090241;28;20195;-66
2024/01/21 10:23:11;;;;;;;1.00;0.90;;;1.30;85.20;;;;;;5100064;28;20178;-66
2024/01/21 10:25:39;;;;;;;1.20;1.10;;;1.30;84.90;;;;;;5094206;28;20468;-66
2024/01/21 10:28:05;;;;;;;0.97;0.87;;;1.40;85.10;;;;;;5073226;28;20421;-66
2024/01/21 10:30:31;;;;;;;2.10;1.40;;;1.50;84.80;;;;;;5089914;28;20818;-67
2024/01/21 10:32:56;;;;;;;2.30;1.83;;;1.50;83.30;;;;;;5100484;28;20427;-66
2024/01/21 10:35:22;;;;;;;0.90;0.80;;;1.60;82.50;;;;;;5095897;28;20195;-69
2024/01/21 10:37:47;;;;;;;1.00;0.90;;;1.80;81.60;;;;;;5108918;28;20193;-66
2024/01/21 10:40:13;;;;;;;1.10;1.00;;;1.90;81.10;;;;;;5105465;28;20275;-67
2024/01/21 10:42:41;;;;;;;1.57;1.47;;;2.00;80.40;;;;;;5089457;28;20192;-67
2024/01/21 10:45:07;;;;;;;1.27;1.17;;;2.20;80.10;;;;;;5089626;28;20213;-66
2024/01/21 10:47:33;;;;;;;1.47;1.40;;;2.20;79.70;;;;;;5089416;28;20482;-67
2024/01/21 10:49:59;;;;;;;1.00;0.90;;;2.30;79.00;;;;;;5099342;28;20508;-66
2024/01/21 10:52:25;;;;;;;0.90;0.80;;;2.40;79.10;;;;;;5099636;28;20446;-66
2024/01/21 10:54:53;;;;;;;1.23;1.13;;;2.50;79.30;;;;;;5111107;28;20950;-67
2024/01/21 10:57:18;;;;;;;1.03;0.93;;;2.60;78.30;;;;;;5096320;28;20184;-66
2024/01/21 10:59:45;;;;;;;0.97;0.87;;;2.70;78.30;;;;;;5097780;28;20416;-66
2024/01/21 11:02:12;;;;;;;1.67;1.57;;;2.70;77.70;;;;;;5106802;28;20206;-67
2024/01/21 11:04:37;;;;;;;1.20;1.10;;;2.70;77.70;;;;;;5097601;28;20484;-66
2024/01/21 11:07:05;;;;;;;1.30;1.20;;;2.80;77.40;;;;;;5101682;28;20828;-68
2024/01/21 11:09:33;;;;;;;1.10;1.00;;;2.90;77.10;;;;;;5103018;27;20514;-69
2024/01/21 11:12:01;;;;;;;1.00;0.90;;;3.00;76.50;;;;;;5101013;28;20447;-70
2024/01/21 11:14:37;;;;;;;1.10;1.00;;;3.00;77.10;;;;;;5094866;28;20478;-67
2024/01/21 11:17:07;;;;;;;2.53;1.40;;;3.00;77.00;;;;;;5098611;28;20464;-68
2024/01/21 11:19:53;;;;;;;4.40;3.00;;;3.10;76.80;;;;;;5089348;28;20453;-67
2024/01/21 11:22:23;;;;;;;0.90;0.80;;;3.30;76.90;;;;;;5083333;28;20440;-69
2024/01/21 11:24:55;;;;;;;0.90;0.80;;;3.50;76.80;;;;;;5087994;28;20845;-66
2024/01/21 11:27:25;;;;;;;1.40;1.33;;;3.70;76.50;;;;;;5098365;28;20904;-68
2024/01/21 11:29:56;;;;;;;1.97;1.87;;;3.70;76.40;;;;;;5097618;28;20428;-69
2024/01/21 11:32:26;;;;;;;1.00;0.90;;;3.70;76.20;;;;;;5093915;28;20432;-67
2024/01/21 11:34:52;;;;;;;1.10;1.00;;;3.60;75.90;;;;;;5097128;28;20927;-67
2024/01/21 11:37:18;;;;;;;1.47;1.37;;;3.70;76.90;;;;;;5088736;28;20432;-67
2024/01/21 11:39:44;;;;;;;1.23;1.13;;;3.70;76.40;;;;;;5088994;28;20459;-69
2024/01/21 11:42:10;;;;;;;1.00;0.90;;;3.70;76.40;;;;;;5089731;28;20482;-67
2024/01/21 11:44:37;;;;;;;2.30;1.93;;;3.60;76.50;;;;;;5088673;28;20210;-72
2024/01/21 11:47:18;;;;;;;1.30;1.20;;;3.50;76.30;;;;;;5100850;22;20390;-89
2024/01/21 11:49:47;;;;;;;1.70;1.43;;;3.40;76.70;;;;;;5075940;28;20416;-88
2024/01/21 11:52:18;;;;;;;1.00;0.90;;;3.40;76.90;;;;;;5076581;28;20779;-88
2024/01/21 11:54:48;;;;;;;1.70;1.60;;;3.30;77.30;;;;;;5073512;28;20436;-89
2024/01/21 11:57:47;;;;;;;1.10;1.00;;;3.30;77.90;;;;;;5083577;28;20879;-89
2024/01/21 12:00:36;;;;;;;1.00;0.90;;;3.30;77.90;;;;;;5107983;28;20423;-88
2024/01/21 12:03:16;;;;;;;0.90;0.80;;;3.10;78.30;;;;;;5082238;28;20435;-88
2024/01/21 12:06:07;;;;;;;1.43;1.33;;;3.10;78.70;;;;;;5089515;28;20485;-89
2024/01/21 12:08:47;;;;;;;1.17;1.00;;;3.10;79.40;;;;;;5092267;28;20412;-89
2024/01/21 12:11:35;;;;;;;1.00;0.90;;;3.10;79.20;;;;;;5092396;28;20419;-88
2024/01/21 12:14:26;;;;;;;1.70;1.63;;;3.00;79.80;;;;;;5088337;28;20467;-88
2024/01/21 12:17:38;;;;;;;1.10;1.00;;;3.10;79.80;;;;;;5084924;28;20936;-88
2024/01/21 12:20:07;;;;;;;1.00;0.90;;;3.10;79.90;;;;;;5110168;28;20455;-89
2024/01/21 12:22:41;;;;;;;1.20;1.10;;;3.10;80.10;;;;;;5089231;28;20420;-88
2024/01/21 12:25:08;;;;;;;1.23;1.10;;;3.10;80.50;;;;;;5094018;28;20450;-88
2024/01/21 12:27:36;;;;;;;1.10;1.00;;;3.20;80.90;;;;;;5092359;28;20436;-88
2024/01/21 12:30:02;;;;;;;3.80;1.10;;;3.20;80.40;;;;;;5090879;28;20469;-88
2024/01/21 12:32:28;;;;;;;1.10;1.00;;;3.30;79.90;;;;;;5095333;28;21037;-88
2024/01/21 12:34:54;;;;;;;1.20;1.10;;;3.40;80.50;;;;;;5088228;28;20443;-88
2024/01/21 12:37:19;;;;;;;1.80;1.47;;;3.50;79.60;;;;;;5105146;28;20420;-89
2024/01/21 12:39:46;;;;;;;1.57;1.47;;;3.50;80.00;;;;;;5105622;28;20189;-88
2024/01/21 12:42:12;;;;;;;1.00;0.90;;;3.60;80.00;;;;;;5101706;28;20188;-88
2024/01/21 12:44:38;;;;;;;1.47;0.80;;;3.60;79.50;;;;;;5102494;28;20502;-87
2024/01/21 12:47:03;;;;;;;1.23;1.13;;;3.70;80.00;;;;;;5098988;28;20316;-88
2024/01/21 12:49:30;;;;;;;1.20;1.10;;;3.50;79.80;;;;;;5104911;28;20555;-87
2024/01/21 12:51:55;;;;;;;1.10;1.00;;;3.40;80.50;;;;;;5101061;28;20174;-88
2024/01/21 12:54:21;;;;;;;0.97;0.87;;;3.40;81.10;;;;;;5121763;28;20511;-87
2024/01/21 12:56:46;;;;;;;1.20;1.10;;;3.30;80.90;;;;;;5105404;28;20694;-88
2024/01/21 12:59:13;;;;;;;1.77;1.77;;;3.20;81.00;;;;;;5103100;28;20182;-87
2024/01/21 13:01:39;;;;;;;1.40;0.90;;;3.20;81.50;;;;;;5097419;28;20268;-88
2024/01/21 13:04:05;;;;;;;2.13;0.90;;;3.10;81.70;;;;;;5103683;28;20491;-88
2024/01/21 13:06:31;;;;;;;1.00;0.90;;;3.00;82.50;;;;;;5102168;28;20432;-87
2024/01/21 13:08:57;;;;;;;1.13;1.03;;;3.00;82.30;;;;;;5105939;28;20181;-88
2024/01/21 13:11:23;;;;;;;1.23;1.13;;;3.00;82.20;;;;;;5100802;28;20419;-89
2024/01/21 13:13:48;;;;;;;1.70;1.60;;;3.00;83.00;;;;;;5100151;28;20485;-88
2024/01/21 13:16:14;;;;;;;14.53;2.20;;;3.00;82.70;;;;;;5088115;28;20209;-88
2024/01/21 13:18:41;;;;;;;1.00;0.90;;;3.00;82.70;;;;;;5097053;28;20215;-89
2024/01/21 13:21:07;;;;;;;1.90;1.43;;;3.00;83.10;;;;;;5096958;28;20174;-88
2024/01/21 13:23:33;;;;;;;0.93;0.83;;;3.00;83.20;;;;;;5096382;28;20515;-88
2024/01/21 13:25:58;;;;;;;0.90;0.80;;;3.00;83.50;;;;;;5089373;28;20460;-88
2024/01/21 13:30:51;;;;;;;1.00;0.90;;;3.00;83.50;;;;;;5111409;28;20181;-87
2024/01/21 13:33:18;;;;;;;1.10;1.00;;;3.10;83.50;;;;;;5110565;28;20172;-88
2024/01/21 13:35:45;;;;;;;0.90;0.80;;;3.10;83.60;;;;;;5098720;28;20439;-89
2024/01/21 13:38:14;;;;;;;0.97;0.87;;;3.20;84.00;;;;;;5092129;28;20444;-88
2024/01/21 13:40:40;;;;;;;0.90;0.80;;;3.20;84.40;;;;;;5098071;28;20523;-88
2024/01/21 13:43:05;;;;;;;1.00;0.90;;;3.30;84.60;;;;;;5097456;28;20483;-88
2024/01/21 13:45:32;;;;;;;1.57;1.47;;;3.30;84.20;;;;;;5101401;28;20202;-88
2024/01/21 13:47:58;;;;;;;2.40;2.20;;;3.40;84.50;;;;;;5096824;28;20605;-87
2024/01/21 13:50:24;;;;;;;1.03;0.93;;;3.40;84.40;;;;;;5094263;28;20417;-89
2024/01/21 13:52:49;;;;;;;1.73;1.13;;;3.50;84.70;;;;;;5097203;28;20422;-88
2024/01/21 13:55:15;;;;;;;0.97;0.90;;;3.60;84.60;;;;;;5095374;28;20177;-86
2024/01/21 13:57:40;;;;;;;1.00;0.90;;;3.70;84.60;;;;;;5100502;28;20182;-89
2024/01/21 14:00:07;;;;;;;1.47;1.40;;;3.80;83.80;;;;;;5119069;28;20260;-89
2024/01/21 14:02:32;;;;;;;1.13;1.03;;;4.30;84.00;;;;;;5116845;28;20187;-87
2024/01/21 14:04:58;;;;;;;0.90;0.80;;;5.00;82.80;;;;;;5098199;28;20825;-88
2024/01/21 14:07:23;;;;;;;1.30;1.20;;;4.90;82.30;;;;;;5101691;28;20572;-89
2024/01/21 14:09:49;;;;;;;6.63;1.73;;;4.50;82.70;;;;;;5107817;28;20185;-89
2024/01/21 14:12:16;;;;;;;1.20;1.10;;;4.40;83.30;;;;;;5115964;27;20173;-87
2024/01/21 14:14:42;;;;;;;2.77;1.47;;;4.30;83.60;;;;;;5112215;28;20178;-89
2024/01/21 14:17:08;;;;;;;1.10;1.00;;;4.20;83.80;;;;;;5099013;28;20435;-88
2024/01/21 14:19:36;;;;;;;1.43;1.33;;;4.20;84.40;;;;;;5098128;28;20424;-86
2024/01/21 14:22:02;;;;;;;1.00;0.90;;;4.10;84.40;;;;;;5100036;28;20420;-89
2024/01/21 14:24:30;;;;;;;1.77;1.43;;;4.00;84.50;;;;;;5099202;28;20455;-89
2024/01/21 14:26:56;;;;;;;2.20;2.00;;;4.00;84.70;;;;;;5101221;28;20456;-90
2024/01/21 14:29:29;;;;;;;1.50;1.40;;;3.90;85.00;;;;;;5099833;28;20431;-89
2024/01/21 14:31:55;;;;;;;0.90;0.80;;;3.80;85.10;;;;;;5100143;28;20211;-89
2024/01/21 14:34:20;;;;;;;1.47;1.37;;;3.70;85.50;;;;;;5117589;28;20426;-88
2024/01/21 14:36:46;;;;;;;3.13;1.73;;;3.70;85.40;;;;;;5097610;28;20205;-89
2024/01/21 14:39:12;;;;;;;1.40;1.30;;;3.70;85.40;;;;;;5101806;28;20182;-88
2024/01/21 14:41:37;;;;;;;1.73;1.63;;;3.70;85.60;;;;;;5098342;28;20234;-88
2024/01/21 14:44:03;;;;;;;1.63;1.53;;;3.60;85.60;;;;;;5092490;28;20202;-89
2024/01/21 14:46:29;;;;;;;1.90;1.80;;;3.50;86.00;;;;;;5091549;28;20267;-89
2024/01/21 14:48:54;;;;;;;1.23;1.13;;;3.40;86.20;;;;;;5099364;28;20170;-89
2024/01/21 14:51:20;;;;;;;1.30;1.20;;;3.40;86.50;;;;;;5100583;28;20273;-89
2024/01/21 14:53:46;;;;;;;1.20;1.10;;;3.40;86.60;;;;;;5103195;28;20181;-88
2024/01/21 14:56:12;;;;;;;1.57;1.47;;;3.30;86.70;;;;;;5098098;28;20671;-89
2024/01/21 14:58:38;;;;;;;1.50;1.40;;;3.30;86.70;;;;;;5097471;28;20418;-88
2024/01/21 15:01:06;;;;;;;1.07;0.97;;;3.30;86.80;;;;;;5099514;28;20436;-87
2024/01/21 15:03:31;;;;;;;1.20;1.10;;;3.20;87.30;;;;;;5098356;28;20446;-88
2024/01/21 15:05:57;;;;;;;1.00;0.90;;;3.10;87.40;;;;;;5100633;28;20471;-89
2024/01/21 15:08:23;;;;;;;1.93;1.83;;;3.10;87.50;;;;;;5114389;28;20193;-88
2024/01/21 15:10:49;;;;;;;3.03;1.33;;;3.10;87.50;;;;;;5095296;28;20196;-89
2024/01/21 15:13:21;;;;;;;1.20;1.10;;;3.00;87.90;;;;;;5095257;28;20268;-88
2024/01/21 15:15:47;;;;;;;1.30;1.20;;;2.90;88.20;;;;;;5096424;28;20198;-88
2024/01/21 15:18:12;;;;;;;1.40;1.30;;;2.90;88.30;;;;;;5094756;28;20451;-89
2024/01/21 15:20:38;;;;;;;3.63;2.47;;;2.90;88.60;;;;;;5102142;27;20173;-90
2024/01/21 15:23:04;;;;;;;0.97;0.87;;;2.80;88.80;;;;;;5093266;28;20211;-88
2024/01/21 15:25:30;;;;;;;1.70;1.60;;;2.80;89.10;;;;;;5099351;28;20210;-89
2024/01/21 15:27:55;;;;;;;0.97;0.87;;;2.70;89.20;;;;;;5099482;27;20947;-89
2024/01/21 15:30:21;;;;;;;2.70;1.33;;;2.70;89.40;;;;;;5108016;27;20268;-89
2024/01/21 15:32:47;;;;;;;6.67;1.50;;;2.70;89.40;;;;;;5107752;27;20230;-89
2024/01/21 15:35:13;;;;;;;2.73;1.30;;;2.70;89.60;;;;;;5095372;28;20651;-90
2024/01/21 15:37:38;;;;;;;1.10;1.00;;;2.70;89.80;;;;;;5130557;27;20417;-90
2024/01/21 15:40:06;;;;;;;1.50;1.40;;;2.60;90.10;;;;;;5092985;28;20203;-89
2024/01/21 15:42:31;;;;;;;1.43;1.33;;;2.60;90.40;;;;;;5110553;27;20190;-89
2024/01/21 15:44:57;;;;;;;1.30;1.20;;;2.60;90.40;;;;;;5096164;28;20462;-90
2024/01/21 15:47:23;;;;;;;1.30;1.20;;;2.60;90.50;;;;;;5097994;28;20233;-90
2024/01/21 15:49:49;;;;;;;1.50;1.40;;;2.50;90.30;;;;;;5099266;28;20182;-91
2024/01/21 15:52:15;;;;;;;1.30;1.10;;;2.50;90.40;;;;;;5101988;28;20457;-89
2024/01/21 15:54:41;;;;;;;0.90;0.80;;;2.50;90.40;;;;;;5100418;28;20508;-89
2024/01/21 15:57:06;;;;;;;1.70;1.47;;;2.50;90.20;;;;;;5100340;28;20206;-89
2024/01/21 15:59:32;;;;;;;1.00;0.90;;;2.50;90.00;;;;;;5100899;28;20223;-91
2024/01/21 16:01:57;;;;;;;1.50;1.40;;;2.50;90.20;;;;;;5100173;28;20234;-91
2024/01/21 16:04:23;;;;;;;1.90;1.80;;;2.50;90.40;;;;;;5096288;28;20309;-90
2024/01/21 16:06:48;;;;;;;4.07;1.60;;;2.50;90.20;;;;;;5096060;28;20204;-90
2024/01/21 16:09:14;;;;;;;1.53;1.30;;;2.50;90.20;;;;;;5100664;28;20196;-90
2024/01/21 16:11:39;;;;;;;4.00;1.53;;;2.50;90.30;;;;;;5096358;28;20182;-91
2024/01/21 16:14:05;;;;;;;1.03;0.93;;;2.50;90.20;;;;;;5097885;28;20178;-88
2024/01/21 16:16:31;;;;;;;5.60;1.47;;;2.50;90.40;;;;;;5096563;22;21116;-66
2024/01/21 16:18:57;;;;;;;1.20;1.10;;;2.50;90.20;;;;;;5074102;28;20511;-66
2024/01/21 16:21:23;;;;;;;2.60;2.33;;;2.40;90.40;;;;;;5072978;28;20280;-66
2024/01/21 16:23:48;;;;;;;1.70;1.60;;;2.40;90.40;;;;;;5059753;28;20570;-66
2024/01/21 16:26:14;;;;;;;1.40;1.20;;;2.40;90.20;;;;;;5074731;28;20189;-66
2024/01/21 16:28:39;;;;;;;3.00;1.40;;;2.40;90.40;;;;;;5060429;28;20178;-65
2024/01/21 16:31:05;;;;;;;1.60;1.50;;;2.40;90.00;;;;;;5061478;28;20191;-66
2024/01/21 16:33:33;;;;;;;1.00;0.90;;;2.40;89.80;;;;;;5065987;28;20206;-67
2024/01/21 16:35:59;;;;;;;8.20;1.80;;;2.50;89.80;;;;;;5067119;28;20171;-66
2024/01/21 16:38:24;;;;;;;1.47;1.37;;;2.50;89.80;;;;;;5057738;28;20852;-66
2024/01/21 16:40:50;;;;;;;0.90;0.90;;;2.50;89.80;;;;;;5059424;28;20445;-67
2024/01/21 16:43:16;;;;;;;1.37;1.27;;;2.50;89.80;;;;;;5058419;28;20192;-66
2024/01/21 16:45:41;;;;;;;1.67;1.57;;;2.50;89.80;;;;;;5048520;28;20196;-66
2024/01/21 16:48:07;;;;;;;2.50;2.00;;;2.50;89.80;;;;;;5074605;28;20274;-66
2024/01/21 16:50:33;;;;;;;1.07;0.97;;;2.50;89.50;;;;;;5060968;28;20504;-66
2024/01/21 16:53:22;;;;;;;1.10;1.00;;;2.50;89.60;;;;;;5075628;28;20424;-66
2024/01/21 16:55:47;;;;;;;1.47;1.40;;;2.50;89.70;;;;;;5056264;28;20650;-64
2024/01/21 16:58:13;;;;;;;1.00;0.90;;;2.70;92.90;;;;;;5057235;28;20421;-63
2024/01/21 17:00:45;;;;;;;2.43;2.23;;;2.70;89.80;;;;;;5062804;28;20198;-64
2024/01/21 17:03:11;;;;;;;1.00;0.90;;;2.60;89.00;;;;;;5056970;28;20198;-66
2024/01/21 17:05:37;;;;;;;1.50;1.40;;;2.60;89.00;;;;;;5077954;28;20968;-65
2024/01/21 17:08:03;;;;;;;0.90;0.80;;;2.60;88.90;;;;;;5069617;28;20187;-65
2024/01/21 17:10:32;;;;;;;1.10;1.00;;;2.60;88.80;;;;;;5056691;28;20725;-66
2024/01/21 17:12:57;;;;;;;1.40;1.30;;;2.50;88.80;;;;;;5060235;28;20482;-65
2024/01/21 17:15:23;;;;;;;5.90;1.83;;;2.50;88.60;;;;;;5083403;28;20436;-66
2024/01/21 17:17:53;;;;;;;1.13;1.03;;;2.50;88.60;;;;;;5068239;28;20195;-66
2024/01/21 17:20:18;;;;;;;1.63;1.53;;;2.50;88.40;;;;;;5079853;28;20185;-65
2024/01/21 17:22:44;;;;;;;1.67;1.57;;;2.50;88.50;;;;;;5065949;28;20435;-65
2024/01/21 17:25:10;;;;;;;0.90;0.80;;;2.50;88.40;;;;;;5073135;28;20206;-66
2024/01/21 17:27:36;;;;;;;1.10;1.00;;;2.50;88.60;;;;;;5096496;28;20249;-65
2024/01/21 17:30:05;;;;;;;1.40;1.33;;;2.50;88.50;;;;;;5098634;28;20546;-66
2024/01/21 17:32:30;;;;;;;1.33;1.23;;;2.50;88.40;;;;;;5091054;28;20437;-66
2024/01/21 17:34:56;;;;;;;1.77;1.67;;;2.50;88.70;;;;;;5083796;28;20796;-65
2024/01/21 17:37:21;;;;;;;5.70;2.30;;;2.50;88.80;;;;;;5102626;28;20182;-65
2024/01/21 17:39:47;;;;;;;2.43;1.70;;;2.50;89.20;;;;;;5102497;28;20618;-65
2024/01/21 17:42:12;;;;;;;1.20;1.10;;;2.50;89.30;;;;;;5095846;28;20617;-65
2024/01/21 17:44:39;;;;;;;7.23;1.67;;;2.50;89.70;;;;;;5068934;28;20697;-65
2024/01/21 17:47:05;;;;;;;1.27;1.17;;;2.60;89.60;;;;;;5069230;28;20186;-66
2024/01/21 17:49:30;;;;;;;2.00;1.27;;;2.60;89.60;;;;;;5059440;28;20444;-65
2024/01/21 17:51:56;;;;;;;1.90;1.80;;;2.60;89.70;;;;;;5065827;28;20452;-65
2024/01/21 17:54:22;;;;;;;2.37;2.17;;;2.60;89.70;;;;;;5051326;28;20183;-66